Terminal Aerodrome Forecast
Issued by NWS Austin/San Antonio, TX

Home | Current Version | Previous Version | Text Only | Print | Product List | Glossary On
Versions: 1 2 3 4 5 6 7 8 9 10 11 12 13 14 15 16 17 18 19 20 21 22 23 24
499
FTUS44 KEWX 022332
TAFAUS
TAF
KAUS 022332Z 0300/0406 35012KT P6SM VCSH OVC070
     FM030200 35007KT P6SM BKN070
     FM030600 35005KT P6SM FEW070
     FM031500 02008KT P6SM FEW070
     FM040100 VRB03KT P6SM SKC=

USA.gov is the U.S. government's official web portal to all federal, state and local government web resources and services.